Portada
METAR-TAF:

METAR-TAF

Aeroports :

Demopolis, Alabama, Estats Units d'Amèrica

latitud: 32-27-50N, longitud: 087-57-15W, altitud: 34 m

Observació

L'informe es va fer fa 22 minuts, a les 07:55 UTC
Vent calma
Temperatura -3°C
Humitat 86%
Pressió 1030 hPa
Visibilitat: 16.1 km
Cel clar

METAR: KDYA 220755Z AUTO 00000KT 10SM CLR M03/M05 A3041 RMK AO2 T10271051

Hora: 02:17 (08:17 UTC)


TAF: manca

Observacions i pronòstics meteorològics de més de 4000 aeroports (METAR i TAF).

Les estacions disponibles són els punts grocs i vermells al mapa.

Posi el ratolí al punt desitjat per veure el nom de l'estació.

Feu clic per veure les observacions i els pronòstics meteorològics.

Per canviar el mapa: feu clic els botons verds amb una creu de color negre per apropar; al botó verd amb un guió per allunyar la imatge; o en les fletxes verdes per a mapes adjacents.


METAR-TAF: